createdAt,value
2018-12-22T00:00:51.562Z,986.29
2018-12-22T00:01:51.560Z,986.34
2018-12-22T00:02:51.540Z,986.40
2018-12-22T00:03:51.553Z,986.34
2018-12-22T00:04:51.519Z,986.42
2018-12-22T00:05:51.518Z,986.39
2018-12-22T00:06:51.497Z,986.30
2018-12-22T00:07:51.509Z,986.35
2018-12-22T00:08:51.480Z,986.41
2018-12-22T00:09:51.483Z,986.47
2018-12-22T00:10:51.485Z,986.41
2018-12-22T00:11:51.462Z,986.41
2018-12-22T00:12:51.433Z,986.38
2018-12-22T00:13:51.419Z,986.44
2018-12-22T00:14:51.440Z,986.40
2018-12-22T00:15:51.397Z,986.32
2018-12-22T00:16:51.386Z,986.41
2018-12-22T00:17:51.375Z,986.47
2018-12-22T00:18:51.369Z,986.47
2018-12-22T00:19:51.380Z,986.46
2018-12-22T00:20:51.345Z,986.43
2018-12-22T00:21:51.334Z,986.53
2018-12-22T00:22:51.320Z,986.51
2018-12-22T00:23:51.336Z,986.54
2018-12-22T00:24:51.300Z,986.60
2018-12-22T00:25:51.292Z,986.60
2018-12-22T00:26:51.304Z,986.57
2018-12-22T00:27:51.265Z,986.64
2018-12-22T00:28:51.264Z,986.68
2018-12-22T00:29:51.245Z,986.74
2018-12-22T00:30:51.257Z,986.74
2018-12-22T00:31:51.224Z,986.71
2018-12-22T00:32:51.214Z,986.74
2018-12-22T00:33:51.211Z,986.80
2018-12-22T00:34:51.188Z,986.82
2018-12-22T00:35:51.204Z,986.80
2018-12-22T00:36:51.171Z,986.87
2018-12-22T00:37:51.165Z,986.89
2018-12-22T00:38:51.147Z,986.97
2018-12-22T00:39:51.135Z,986.93
2018-12-22T00:40:51.147Z,987.01
2018-12-22T00:41:51.115Z,987.00
2018-12-22T00:42:51.128Z,987.05
2018-12-22T00:43:51.091Z,987.10
2018-12-22T00:44:51.079Z,987.16
2018-12-22T00:45:51.066Z,987.18
2018-12-22T00:46:51.059Z,987.18
2018-12-22T00:47:51.069Z,987.25
2018-12-22T00:48:51.049Z,987.20
2018-12-22T00:49:51.024Z,987.23
2018-12-22T00:50:51.011Z,987.18
2018-12-22T00:51:51.035Z,987.23
2018-12-22T00:52:50.990Z,987.22
2018-12-22T00:53:50.978Z,987.24
2018-12-22T00:54:50.969Z,987.29
2018-12-22T00:55:50.961Z,987.29
2018-12-22T00:56:50.972Z,987.35
2018-12-22T00:57:50.940Z,987.31
2018-12-22T00:58:50.928Z,987.30
2018-12-22T00:59:51.017Z,987.30
2018-12-22T01:00:50.900Z,987.36
2018-12-22T01:01:50.917Z,987.36
2018-12-22T01:02:50.886Z,987.45
2018-12-22T01:03:50.876Z,987.36
2018-12-22T01:04:50.861Z,987.49
2018-12-22T01:05:50.866Z,987.48
2018-12-22T01:06:52.703Z,987.43
2018-12-22T01:07:50.850Z,987.40
2018-12-22T01:08:50.819Z,987.46
2018-12-22T01:09:50.806Z,987.45
2018-12-22T01:10:50.791Z,987.46
2018-12-22T01:11:50.779Z,987.52
2018-12-22T01:12:50.794Z,987.53
2018-12-22T01:13:50.758Z,987.51
2018-12-22T01:14:50.750Z,987.47
2018-12-22T01:15:50.735Z,987.49
2018-12-22T01:16:50.748Z,987.55
2018-12-22T01:17:50.741Z,987.49
2018-12-22T01:18:50.705Z,987.55
2018-12-22T01:19:50.693Z,987.57
2018-12-22T01:20:50.700Z,987.58
2018-12-22T01:21:50.798Z,987.58
2018-12-22T01:22:50.658Z,987.57
2018-12-22T01:23:50.645Z,987.59
2018-12-22T01:24:50.645Z,987.62
2018-12-22T01:25:50.653Z,987.63
2018-12-22T01:26:50.612Z,987.59
2018-12-22T01:27:50.602Z,987.60
2018-12-22T01:28:50.593Z,987.57
2018-12-22T01:29:50.605Z,987.60
2018-12-22T01:30:50.574Z,987.60
2018-12-22T01:31:50.560Z,987.61
2018-12-22T01:32:50.546Z,987.68
2018-12-22T01:33:50.535Z,987.75
2018-12-22T01:34:50.541Z,987.73
2018-12-22T01:35:50.513Z,987.73
2018-12-22T01:36:50.504Z,987.76
2018-12-22T01:37:50.532Z,987.76
2018-12-22T01:38:50.581Z,987.73
2018-12-22T01:39:50.471Z,987.75
2018-12-22T01:40:50.493Z,987.73
2018-12-22T01:41:50.452Z,987.76
2018-12-22T01:42:50.435Z,987.72
2018-12-22T01:43:50.425Z,987.76
2018-12-22T01:44:50.414Z,987.74
2018-12-22T01:45:50.430Z,987.74
2018-12-22T01:46:50.399Z,987.79
2018-12-22T01:47:50.381Z,987.75
2018-12-22T01:48:50.369Z,987.75
2018-12-22T01:49:50.389Z,987.79
2018-12-22T01:50:50.347Z,987.74
2018-12-22T01:51:50.334Z,987.70
2018-12-22T01:52:50.434Z,987.70
2018-12-22T01:53:50.318Z,987.71
2018-12-22T01:54:50.327Z,987.72
2018-12-22T01:55:50.293Z,987.79
2018-12-22T01:56:50.279Z,987.69
2018-12-22T01:57:50.271Z,987.68
2018-12-22T01:58:50.258Z,987.74
2018-12-22T01:59:50.269Z,987.67
2018-12-22T02:00:50.237Z,987.67
2018-12-22T02:01:50.265Z,987.74
2018-12-22T02:02:50.215Z,987.72
2018-12-22T02:03:50.203Z,987.70
2018-12-22T02:04:50.194Z,987.78
2018-12-22T02:05:50.180Z,987.75
2018-12-22T02:06:50.198Z,987.74
2018-12-22T02:07:50.162Z,987.69
2018-12-22T02:08:50.149Z,987.72
2018-12-22T02:09:50.163Z,987.76
2018-12-22T02:10:50.135Z,987.79
2018-12-22T02:11:50.115Z,987.78
2018-12-22T02:12:50.103Z,987.79
2018-12-22T02:13:50.094Z,987.84
2018-12-22T02:14:50.105Z,987.84
2018-12-22T02:15:50.082Z,987.88
2018-12-22T02:16:50.058Z,987.83
2018-12-22T02:17:50.047Z,987.84
2018-12-22T02:18:50.038Z,987.83
2018-12-22T02:19:50.050Z,987.73
2018-12-22T02:20:50.019Z,987.78
2018-12-22T02:21:50.040Z,987.79
2018-12-22T02:22:49.993Z,987.79
2018-12-22T02:23:49.981Z,987.77
2018-12-22T02:24:49.972Z,987.83
2018-12-22T02:25:50.263Z,987.83
2018-12-22T02:26:49.980Z,987.78
2018-12-22T02:27:49.942Z,987.74
2018-12-22T02:28:56.524Z,987.74
2018-12-22T02:29:50.916Z,987.74
2018-12-22T02:30:49.902Z,987.76
2018-12-22T02:31:49.932Z,987.72
2018-12-22T02:32:49.882Z,987.79
2018-12-22T02:33:49.870Z,987.84
2018-12-22T02:34:49.881Z,987.84
2018-12-22T02:35:49.851Z,987.72
2018-12-22T02:36:49.842Z,987.71
2018-12-22T02:37:49.826Z,987.75
2018-12-22T02:38:49.813Z,987.76
2018-12-22T02:39:49.835Z,987.71
2018-12-22T02:40:49.794Z,987.71
2018-12-22T02:41:49.782Z,987.75
2018-12-22T02:42:49.774Z,987.77
2018-12-22T02:43:49.788Z,987.73
2018-12-22T02:44:49.773Z,987.69
2018-12-22T02:45:49.737Z,987.73
2018-12-22T02:46:49.724Z,987.73
2018-12-22T02:47:49.724Z,987.72
2018-12-22T02:48:49.734Z,987.70
2018-12-22T02:49:49.691Z,987.74
2018-12-22T02:50:49.682Z,987.70
2018-12-22T02:51:49.679Z,987.69
2018-12-22T02:52:49.660Z,987.70
2018-12-22T02:53:49.662Z,987.72
2018-12-22T02:54:49.639Z,987.74
2018-12-22T02:55:49.625Z,987.71
2018-12-22T02:56:49.616Z,987.66
2018-12-22T02:57:49.631Z,987.67
2018-12-22T02:58:49.594Z,987.70
2018-12-22T02:59:49.581Z,987.70
2018-12-22T03:00:49.572Z,987.71
2018-12-22T03:01:49.566Z,987.74
2018-12-22T03:02:49.585Z,987.70
2018-12-22T03:03:49.539Z,987.73
2018-12-22T03:04:49.527Z,987.69
2018-12-22T03:05:49.513Z,987.66
2018-12-22T03:06:49.510Z,987.65
2018-12-22T03:07:49.514Z,987.64
2018-12-22T03:08:49.481Z,987.66
2018-12-22T03:09:49.499Z,987.63
2018-12-22T03:10:49.460Z,987.64
2018-12-22T03:11:49.447Z,987.59
2018-12-22T03:12:49.437Z,987.56
2018-12-22T03:13:49.452Z,987.54
2018-12-22T03:14:49.426Z,987.53
2018-12-22T03:15:49.441Z,987.49
2018-12-22T03:16:49.392Z,987.51
2018-12-22T03:17:49.381Z,987.55
2018-12-22T03:18:49.368Z,987.51
2018-12-22T03:19:49.362Z,987.49
2018-12-22T03:20:49.385Z,987.46
2018-12-22T03:21:49.342Z,987.43
2018-12-22T03:22:49.330Z,987.40
2018-12-22T03:23:49.315Z,987.43
2018-12-22T03:24:49.305Z,987.43
2018-12-22T03:25:49.318Z,987.41
2018-12-22T03:26:49.280Z,987.42
2018-12-22T03:27:49.321Z,987.42
2018-12-22T03:28:49.257Z,987.41
2018-12-22T03:29:49.249Z,987.44
2018-12-22T03:30:49.258Z,987.41
2018-12-22T03:31:49.257Z,987.37
2018-12-22T03:32:49.216Z,987.39
2018-12-22T03:33:49.201Z,987.45
2018-12-22T03:34:49.191Z,987.46
2018-12-22T03:35:49.179Z,987.46
2018-12-22T03:36:49.194Z,987.45
2018-12-22T03:37:49.162Z,987.44
2018-12-22T03:38:49.174Z,987.47
2018-12-22T03:39:49.136Z,987.41
2018-12-22T03:40:49.124Z,987.44
2018-12-22T03:41:49.113Z,987.47
2018-12-22T03:42:49.106Z,987.45
2018-12-22T03:43:49.120Z,987.42
2018-12-22T03:44:49.079Z,987.42
2018-12-22T03:45:49.071Z,987.42
2018-12-22T03:46:49.058Z,987.40
2018-12-22T03:47:49.070Z,987.38
2018-12-22T03:48:49.036Z,987.42
2018-12-22T03:49:49.027Z,987.39
2018-12-22T03:50:49.050Z,987.35
2018-12-22T03:51:49.002Z,987.38
2018-12-22T03:52:48.991Z,987.34
2018-12-22T03:53:48.979Z,987.35
2018-12-22T03:54:48.975Z,987.34
2018-12-22T03:55:48.980Z,987.36
2018-12-22T03:56:48.947Z,987.34
2018-12-22T03:57:48.958Z,987.39
2018-12-22T03:58:48.925Z,987.38
2018-12-22T03:59:48.911Z,987.41
2018-12-22T04:00:48.942Z,987.47
2018-12-22T04:01:48.891Z,987.47
2018-12-22T04:02:48.888Z,987.50
2018-12-22T04:03:48.867Z,987.44
2018-12-22T04:04:48.855Z,987.51
2018-12-22T04:05:48.908Z,987.55
2018-12-22T04:06:48.832Z,987.53
2018-12-22T04:07:48.821Z,987.49
2018-12-22T04:08:48.810Z,987.50
2018-12-22T04:09:48.799Z,987.54
2018-12-22T04:10:48.813Z,987.53
2018-12-22T04:11:48.778Z,987.54
2018-12-22T04:12:48.769Z,987.42
2018-12-22T04:13:48.754Z,987.44
2018-12-22T04:14:48.777Z,987.48
2018-12-22T04:15:48.733Z,987.40
2018-12-22T04:16:48.724Z,987.47
2018-12-22T04:17:48.710Z,987.49
2018-12-22T04:18:48.699Z,987.53
2018-12-22T04:19:48.706Z,987.52
2018-12-22T04:20:48.676Z,987.50
2018-12-22T04:21:48.667Z,987.43
2018-12-22T04:22:48.680Z,987.44
2018-12-22T04:23:48.660Z,987.36
2018-12-22T04:24:48.632Z,987.43
2018-12-22T04:25:48.646Z,987.43
2018-12-22T04:26:48.612Z,987.41
2018-12-22T04:27:48.600Z,987.36
2018-12-22T04:28:48.588Z,987.41
2018-12-22T04:29:48.579Z,987.43
2018-12-22T04:30:48.593Z,987.41
2018-12-22T04:31:50.759Z,987.43
2018-12-22T04:32:48.550Z,987.39
2018-12-22T04:33:48.560Z,987.35
2018-12-22T04:34:48.521Z,987.35
2018-12-22T04:35:48.537Z,987.38
2018-12-22T04:36:48.505Z,987.36
2018-12-22T04:37:48.490Z,987.36
2018-12-22T04:38:48.500Z,987.34
2018-12-22T04:39:48.464Z,987.36
2018-12-22T04:40:48.454Z,987.41
2018-12-22T04:41:48.464Z,987.35
2018-12-22T04:42:48.432Z,987.32
2018-12-22T04:43:48.430Z,987.40
2018-12-22T04:44:48.441Z,987.40
2018-12-22T04:45:48.398Z,987.41
2018-12-22T04:46:48.388Z,987.35
2018-12-22T04:47:48.375Z,987.36
2018-12-22T04:48:48.366Z,987.34
2018-12-22T04:49:48.586Z,987.34
2018-12-22T04:50:48.343Z,987.34
2018-12-22T04:51:48.329Z,987.36
2018-12-22T04:52:48.326Z,987.37
2018-12-22T04:53:48.357Z,987.38
2018-12-22T04:54:48.301Z,987.34
2018-12-22T04:55:48.295Z,987.31
2018-12-22T04:56:48.298Z,987.33
2018-12-22T04:57:48.263Z,987.27
2018-12-22T04:58:48.251Z,987.24
2018-12-22T04:59:48.240Z,987.24
2018-12-22T05:00:48.255Z,987.20
2018-12-22T05:01:48.232Z,987.21
2018-12-22T05:02:48.209Z,987.19
2018-12-22T05:03:48.198Z,987.18
2018-12-22T05:04:48.184Z,987.18
2018-12-22T05:05:48.196Z,987.17
2018-12-22T05:06:48.178Z,987.19
2018-12-22T05:07:48.151Z,987.17
2018-12-22T05:08:48.144Z,987.22
2018-12-22T05:09:48.146Z,987.21
2018-12-22T05:10:48.157Z,987.15
2018-12-22T05:11:48.106Z,987.16
2018-12-22T05:12:48.106Z,987.14
2018-12-22T05:13:48.088Z,987.18
2018-12-22T05:14:48.073Z,987.16
2018-12-22T05:15:48.098Z,987.18
2018-12-22T05:16:48.052Z,987.16
2018-12-22T05:17:48.040Z,987.15
2018-12-22T05:18:48.029Z,987.14
2018-12-22T05:19:48.024Z,987.11
2018-12-22T05:20:48.033Z,987.08
2018-12-22T05:21:47.996Z,987.08
2018-12-22T05:22:48.009Z,987.04
2018-12-22T05:23:47.972Z,987.03
2018-12-22T05:24:47.967Z,987.03
2018-12-22T05:25:47.973Z,987.09
2018-12-22T05:26:47.944Z,987.07
2018-12-22T05:27:47.952Z,987.03
2018-12-22T05:28:47.925Z,987.10
2018-12-22T05:29:51.858Z,987.11
2018-12-22T05:30:47.917Z,987.13
2018-12-22T05:31:47.886Z,987.13
2018-12-22T05:32:47.876Z,987.14
2018-12-22T05:33:47.894Z,987.13
2018-12-22T05:34:47.853Z,987.11
2018-12-22T05:35:47.836Z,987.09
2018-12-22T05:36:47.825Z,987.05
2018-12-22T05:37:47.816Z,987.03
2018-12-22T05:38:47.828Z,986.99
2018-12-22T05:39:47.826Z,986.96
2018-12-22T05:40:47.805Z,986.95
2018-12-22T05:41:47.801Z,986.93
2018-12-22T05:42:47.758Z,986.89
2018-12-22T05:43:47.750Z,986.90
2018-12-22T05:44:47.763Z,986.91
2018-12-22T05:45:47.730Z,986.90
2018-12-22T05:46:47.715Z,986.89
2018-12-22T05:47:47.709Z,986.91
2018-12-22T05:48:47.699Z,986.95
2018-12-22T05:49:47.708Z,986.95
2018-12-22T05:50:47.695Z,986.92
2018-12-22T05:51:47.668Z,986.99
2018-12-22T05:52:47.650Z,987.01
2018-12-22T05:53:47.673Z,987.03
2018-12-22T05:54:47.656Z,987.04
2018-12-22T05:55:47.717Z,986.98
2018-12-22T05:56:47.604Z,986.96
2018-12-22T05:57:47.625Z,986.94
2018-12-22T05:58:47.582Z,986.96
2018-12-22T05:59:47.575Z,986.90
2018-12-22T06:00:47.560Z,986.92
2018-12-22T06:01:47.573Z,986.92
2018-12-22T06:02:47.541Z,986.86
2018-12-22T06:03:47.526Z,986.89
2018-12-22T06:04:47.514Z,986.83
2018-12-22T06:05:47.531Z,986.83
2018-12-22T06:06:47.503Z,986.90
2018-12-22T06:07:47.485Z,986.85
2018-12-22T06:08:47.470Z,986.82
2018-12-22T06:09:47.457Z,986.80
2018-12-22T06:10:47.474Z,986.78
2018-12-22T06:11:47.436Z,986.77
2018-12-22T06:12:47.451Z,986.82
2018-12-22T06:13:47.415Z,986.79
2018-12-22T06:14:47.405Z,986.82
2018-12-22T06:15:47.391Z,986.77
2018-12-22T06:16:47.379Z,986.77
2018-12-22T06:17:47.395Z,986.71
2018-12-22T06:18:47.363Z,986.76
2018-12-22T06:19:47.361Z,986.77
2018-12-22T06:20:47.358Z,986.75
2018-12-22T06:21:47.324Z,986.76
2018-12-22T06:22:47.319Z,986.75
2018-12-22T06:23:47.301Z,986.75
2018-12-22T06:24:47.320Z,986.75
2018-12-22T06:25:47.279Z,986.75
2018-12-22T06:26:47.307Z,986.72
2018-12-22T06:27:47.257Z,986.73
2018-12-22T06:28:47.246Z,986.74
2018-12-22T06:29:47.242Z,986.76
2018-12-22T06:30:47.224Z,986.73
2018-12-22T06:31:47.265Z,986.72
2018-12-22T06:32:47.201Z,986.66
2018-12-22T06:33:47.196Z,986.69
2018-12-22T06:34:47.182Z,986.66
2018-12-22T06:35:47.193Z,986.65
2018-12-22T06:36:47.157Z,986.56
2018-12-22T06:37:47.150Z,986.55
2018-12-22T06:38:47.137Z,986.53
2018-12-22T06:39:47.158Z,986.53
2018-12-22T06:40:47.118Z,986.56
2018-12-22T06:41:47.128Z,986.59
2018-12-22T06:42:47.090Z,986.56
2018-12-22T06:43:47.082Z,986.57
2018-12-22T06:44:47.103Z,986.56
2018-12-22T06:45:47.064Z,986.55
2018-12-22T06:46:47.071Z,986.53
2018-12-22T06:47:47.034Z,986.51
2018-12-22T06:48:47.026Z,986.50
2018-12-22T06:49:47.019Z,986.53
2018-12-22T06:50:47.008Z,986.51
2018-12-22T06:51:47.014Z,986.49
2018-12-22T06:52:46.979Z,986.51
2018-12-22T06:53:46.995Z,986.46
2018-12-22T06:54:46.959Z,986.48
2018-12-22T06:55:46.961Z,986.49
2018-12-22T06:56:46.934Z,986.47
2018-12-22T06:57:46.922Z,986.44
2018-12-22T06:58:46.930Z,986.44
2018-12-22T06:59:46.903Z,986.49
2018-12-22T07:00:46.933Z,986.45
2018-12-22T07:01:46.878Z,986.52
2018-12-22T07:02:46.872Z,986.51
2018-12-22T07:03:46.854Z,986.54
2018-12-22T07:04:46.846Z,986.53
2018-12-22T07:05:46.877Z,986.54
2018-12-22T07:06:46.822Z,986.53
2018-12-22T07:07:46.813Z,986.54
2018-12-22T07:08:46.806Z,986.60
2018-12-22T07:09:46.811Z,986.68
2018-12-22T07:10:46.786Z,986.31
2018-12-22T07:11:46.766Z,986.47
2018-12-22T07:12:46.755Z,986.51
2018-12-22T07:13:46.748Z,986.57
2018-12-22T07:14:46.780Z,986.74
2018-12-22T07:15:46.744Z,986.54
2018-12-22T07:16:46.714Z,986.56
2018-12-22T07:17:46.700Z,986.63
2018-12-22T07:18:46.790Z,986.53
2018-12-22T07:19:46.676Z,986.62
2018-12-22T07:20:46.700Z,986.67
2018-12-22T07:21:46.663Z,986.54
2018-12-22T07:22:46.656Z,986.53
2018-12-22T07:23:46.634Z,986.55
2018-12-22T07:24:46.769Z,986.59
2018-12-22T07:25:46.633Z,986.86
2018-12-22T07:26:46.608Z,986.89
2018-12-22T07:27:46.601Z,986.69
2018-12-22T07:28:46.577Z,986.69
2018-12-22T07:29:46.570Z,986.58
2018-12-22T07:30:46.581Z,986.81
2018-12-22T07:31:46.543Z,986.87
2018-12-22T07:32:46.532Z,986.81
2018-12-22T07:33:46.555Z,986.88
2018-12-22T07:34:46.517Z,986.90
2018-12-22T07:35:46.526Z,986.95
2018-12-22T07:36:46.487Z,986.99
2018-12-22T07:37:46.475Z,987.12
2018-12-22T07:38:46.466Z,987.13
2018-12-22T07:39:46.492Z,987.10
2018-12-22T07:40:46.444Z,987.20
2018-12-22T07:41:46.434Z,987.23
2018-12-22T07:42:46.425Z,987.07
2018-12-22T07:43:46.428Z,987.04
2018-12-22T07:44:46.424Z,987.17
2018-12-22T07:45:46.402Z,987.33
2018-12-22T07:46:46.411Z,987.29
2018-12-22T07:47:46.365Z,987.24
2018-12-22T07:48:46.355Z,987.16
2018-12-22T07:49:46.375Z,987.07
2018-12-22T07:50:46.350Z,987.13
2018-12-22T07:51:46.323Z,987.08
2018-12-22T07:52:51.629Z,987.23
2018-12-22T07:53:47.296Z,987.33
2018-12-22T07:54:46.319Z,987.42
2018-12-22T07:55:46.287Z,987.41
2018-12-22T07:56:46.267Z,987.39
2018-12-22T07:57:46.253Z,987.41
2018-12-22T07:58:46.241Z,987.45
2018-12-22T07:59:46.253Z,987.41
2018-12-22T08:00:46.230Z,987.34
2018-12-22T08:01:46.212Z,987.37
2018-12-22T08:02:46.246Z,987.42
2018-12-22T08:03:46.188Z,987.45
2018-12-22T08:04:46.177Z,987.46
2018-12-22T08:05:46.203Z,987.38
2018-12-22T08:06:46.158Z,987.47
2018-12-22T08:07:46.164Z,987.50
2018-12-22T08:08:46.163Z,987.46
2018-12-22T08:09:46.119Z,987.51
2018-12-22T08:10:46.111Z,987.54
2018-12-22T08:11:46.132Z,987.51
2018-12-22T08:12:46.086Z,987.63
2018-12-22T08:13:46.086Z,987.64
2018-12-22T08:14:46.076Z,987.55
2018-12-22T08:15:46.051Z,987.63
2018-12-22T08:16:46.067Z,987.57
2018-12-22T08:17:46.031Z,987.57
2018-12-22T08:18:46.030Z,987.64
2018-12-22T08:19:46.037Z,987.73
2018-12-22T08:20:46.066Z,987.77
2018-12-22T08:21:45.987Z,987.76
2018-12-22T08:22:45.974Z,987.78
2018-12-22T08:23:45.986Z,987.72
2018-12-22T08:24:45.951Z,987.71
2018-12-22T08:25:45.940Z,987.69
2018-12-22T08:26:45.957Z,987.68
2018-12-22T08:27:45.937Z,987.64
2018-12-22T08:28:45.908Z,987.64
2018-12-22T08:29:45.897Z,987.68
2018-12-22T08:30:45.911Z,987.61
2018-12-22T08:31:45.876Z,987.59
2018-12-22T08:32:45.863Z,987.63
2018-12-22T08:33:45.853Z,987.68
2018-12-22T08:34:45.870Z,987.72
2018-12-22T08:35:45.854Z,987.71
2018-12-22T08:36:45.858Z,987.71
2018-12-22T08:37:45.808Z,987.78
2018-12-22T08:38:45.798Z,987.90
2018-12-22T08:39:45.785Z,988.09
2018-12-22T08:40:45.784Z,988.20
2018-12-22T08:41:45.779Z,988.17
2018-12-22T08:42:45.758Z,988.28
2018-12-22T08:43:45.766Z,988.36
2018-12-22T08:44:45.729Z,988.39
2018-12-22T08:45:45.718Z,988.46
2018-12-22T08:46:45.723Z,988.47
2018-12-22T08:47:45.729Z,988.46
2018-12-22T08:48:45.694Z,988.42
2018-12-22T08:49:45.695Z,988.44
2018-12-22T08:50:45.663Z,988.43
2018-12-22T08:51:45.652Z,988.43
2018-12-22T08:52:45.663Z,988.59
2018-12-22T08:53:45.629Z,988.65
2018-12-22T08:54:45.619Z,988.74
2018-12-22T08:55:45.610Z,988.88
2018-12-22T08:56:45.621Z,988.96
2018-12-22T08:57:45.611Z,989.03
2018-12-22T08:58:45.573Z,989.11
2018-12-22T08:59:45.570Z,989.23
2018-12-22T09:00:52.083Z,989.27
2018-12-22T09:01:46.566Z,989.40
2018-12-22T09:02:47.699Z,989.40
2018-12-22T09:03:45.522Z,989.46
2018-12-22T09:04:45.523Z,989.51
2018-12-22T09:05:45.498Z,989.46
2018-12-22T09:06:45.519Z,989.47
2018-12-22T09:07:45.485Z,989.45
2018-12-22T09:08:45.495Z,989.49
2018-12-22T09:09:45.452Z,989.40
2018-12-22T09:10:45.444Z,989.32
2018-12-22T09:11:45.446Z,989.29
2018-12-22T09:12:45.451Z,989.24
2018-12-22T09:13:45.408Z,989.20
2018-12-22T09:14:45.398Z,989.23
2018-12-22T09:15:45.426Z,989.29
2018-12-22T09:16:45.383Z,989.26
2018-12-22T09:17:45.387Z,989.30
2018-12-22T09:18:45.352Z,989.34
2018-12-22T09:19:45.365Z,989.31
2018-12-22T09:20:45.332Z,989.32
2018-12-22T09:21:45.342Z,989.31
2018-12-22T09:22:45.319Z,989.35
2018-12-22T09:23:45.685Z,989.40
2018-12-22T09:24:45.324Z,989.39
2018-12-22T09:25:45.277Z,989.45
2018-12-22T09:26:45.289Z,989.44
2018-12-22T09:27:45.351Z,989.47
2018-12-22T09:28:45.276Z,989.43
2018-12-22T09:29:45.248Z,989.45
2018-12-22T09:30:45.224Z,989.46
2018-12-22T09:31:45.257Z,989.51
2018-12-22T09:32:45.202Z,989.50
2018-12-22T09:33:45.212Z,989.56
2018-12-22T09:34:45.183Z,989.62
2018-12-22T09:35:45.173Z,989.59
2018-12-22T09:36:45.239Z,989.58
2018-12-22T09:37:45.145Z,989.64
2018-12-22T09:38:45.133Z,989.68
2018-12-22T09:39:45.122Z,989.75
2018-12-22T09:40:45.142Z,989.72
2018-12-22T09:41:45.097Z,989.76
2018-12-22T09:42:45.089Z,989.80
2018-12-22T09:43:45.110Z,989.81
2018-12-22T09:44:45.097Z,989.78
2018-12-22T09:45:45.057Z,989.81
2018-12-22T09:46:45.047Z,989.85
2018-12-22T09:47:45.033Z,989.89
2018-12-22T09:48:45.057Z,989.89
2018-12-22T09:49:46.135Z,989.98
2018-12-22T09:50:44.998Z,990.06
2018-12-22T09:51:45.044Z,990.02
2018-12-22T09:52:44.985Z,990.05
2018-12-22T09:53:44.964Z,990.09
2018-12-22T09:54:44.998Z,990.14
2018-12-22T09:55:44.955Z,990.18
2018-12-22T09:56:44.934Z,990.18
2018-12-22T09:57:44.920Z,990.18
2018-12-22T09:58:44.918Z,990.13
2018-12-22T09:59:44.939Z,990.15
2018-12-22T10:00:44.896Z,990.15
2018-12-22T10:01:44.878Z,990.17
2018-12-22T10:02:44.866Z,990.20
2018-12-22T10:03:44.882Z,990.28
2018-12-22T10:04:44.882Z,990.38
2018-12-22T10:05:44.873Z,990.47
2018-12-22T10:06:44.828Z,990.47
2018-12-22T10:07:44.825Z,990.56
2018-12-22T10:08:44.804Z,990.56
2018-12-22T10:09:44.825Z,990.62
2018-12-22T10:10:44.776Z,990.66
2018-12-22T10:11:44.784Z,990.62
2018-12-22T10:12:44.816Z,990.66
2018-12-22T10:13:44.771Z,990.69
2018-12-22T10:14:44.735Z,990.68
2018-12-22T10:15:44.749Z,990.71
2018-12-22T10:16:44.712Z,990.74
2018-12-22T10:17:44.703Z,990.77
2018-12-22T10:18:44.748Z,990.82
2018-12-22T10:19:44.690Z,990.85
2018-12-22T10:20:44.697Z,990.88
2018-12-22T10:21:44.665Z,990.88
2018-12-22T10:22:44.645Z,990.92
2018-12-22T10:23:44.640Z,990.89
2018-12-22T10:24:44.629Z,990.92
2018-12-22T10:25:44.651Z,990.96
2018-12-22T10:26:44.608Z,990.97
2018-12-22T10:27:44.621Z,990.99
2018-12-22T10:28:44.617Z,991.05
2018-12-22T10:29:44.570Z,991.08
2018-12-22T10:30:44.558Z,991.13
2018-12-22T10:31:44.593Z,991.20
2018-12-22T10:32:44.604Z,991.25
2018-12-22T10:33:44.531Z,991.29
2018-12-22T10:34:44.512Z,991.35
2018-12-22T10:35:44.502Z,991.42
2018-12-22T10:36:44.522Z,991.43
2018-12-22T10:37:44.506Z,991.46
2018-12-22T10:38:44.501Z,991.44
2018-12-22T10:39:44.455Z,991.54
2018-12-22T10:40:44.455Z,991.53
2018-12-22T10:41:44.434Z,991.61
2018-12-22T10:42:44.456Z,991.71
2018-12-22T10:43:44.418Z,991.63
2018-12-22T10:44:44.409Z,991.73
2018-12-22T10:45:44.391Z,991.70
2018-12-22T10:46:44.474Z,991.73
2018-12-22T10:47:44.425Z,991.76
2018-12-22T10:48:44.357Z,991.79
2018-12-22T10:49:44.354Z,991.77
2018-12-22T10:50:44.366Z,991.77
2018-12-22T10:51:44.356Z,991.83
2018-12-22T10:52:44.313Z,991.86
2018-12-22T10:53:44.303Z,991.93
2018-12-22T10:54:44.292Z,991.92
2018-12-22T10:55:44.286Z,991.86
2018-12-22T10:56:44.304Z,991.84
2018-12-22T10:57:44.260Z,991.88
2018-12-22T10:58:44.249Z,991.78
2018-12-22T10:59:44.742Z,991.92
2018-12-22T11:00:44.418Z,991.92
2018-12-22T11:01:44.215Z,991.88
2018-12-22T11:02:46.575Z,991.95
2018-12-22T11:03:44.248Z,991.94
2018-12-22T11:04:44.203Z,991.95
2018-12-22T11:05:44.169Z,991.97
2018-12-22T11:06:44.160Z,991.94
2018-12-22T11:07:44.186Z,991.94
2018-12-22T11:08:44.136Z,991.98
2018-12-22T11:09:44.160Z,992.03
2018-12-22T11:10:44.134Z,992.05
2018-12-22T11:11:44.102Z,992.07
2018-12-22T11:12:44.098Z,992.04
2018-12-22T11:13:44.094Z,992.12
2018-12-22T11:14:44.097Z,992.09
2018-12-22T11:15:44.105Z,992.12
2018-12-22T11:16:44.060Z,992.17
2018-12-22T11:17:44.063Z,992.15
2018-12-22T11:18:44.027Z,992.16
2018-12-22T11:19:44.042Z,992.20
2018-12-22T11:20:44.038Z,992.25
2018-12-22T11:21:43.995Z,992.27
2018-12-22T11:22:43.980Z,992.31
2018-12-22T11:23:43.996Z,992.29
2018-12-22T11:24:43.960Z,992.34
2018-12-22T11:25:43.974Z,992.36
2018-12-22T11:26:43.958Z,992.41
2018-12-22T11:27:43.950Z,992.41
2018-12-22T11:28:43.914Z,992.44
2018-12-22T11:29:43.903Z,992.46
2018-12-22T11:30:43.896Z,992.50
2018-12-22T11:31:43.920Z,992.47
2018-12-22T11:32:43.884Z,992.51
2018-12-22T11:33:43.864Z,992.48
2018-12-22T11:34:43.865Z,992.50
2018-12-22T11:35:43.861Z,992.48
2018-12-22T11:36:43.836Z,992.53
2018-12-22T11:37:43.825Z,992.50
2018-12-22T11:38:43.853Z,992.56
2018-12-22T11:39:43.820Z,992.60
2018-12-22T11:40:43.782Z,992.56
2018-12-22T11:41:43.782Z,992.60
2018-12-22T11:42:47.560Z,992.55
2018-12-22T11:43:43.749Z,992.57
2018-12-22T11:44:43.784Z,992.55
2018-12-22T11:45:43.740Z,992.62
2018-12-22T11:46:43.721Z,992.64
2018-12-22T11:47:43.720Z,992.61
2018-12-22T11:48:43.697Z,992.61
2018-12-22T11:49:43.714Z,992.62
2018-12-22T11:50:43.715Z,992.64
2018-12-22T11:51:43.679Z,992.65
2018-12-22T11:52:43.651Z,992.67
2018-12-22T11:53:43.640Z,992.68
2018-12-22T11:54:43.655Z,992.72
2018-12-22T11:55:43.648Z,992.79
2018-12-22T11:56:43.606Z,992.81
2018-12-22T11:57:43.596Z,992.86
2018-12-22T11:58:43.674Z,992.87
2018-12-22T11:59:43.585Z,992.91
2018-12-22T12:00:43.611Z,992.88
2018-12-22T12:01:43.907Z,992.90
2018-12-22T12:02:43.555Z,992.90
2018-12-22T12:03:43.540Z,992.94
2018-12-22T12:04:43.517Z,992.95
2018-12-22T12:05:43.542Z,992.98
2018-12-22T12:06:43.524Z,992.97
2018-12-22T12:07:43.498Z,993.02
2018-12-22T12:08:43.485Z,993.02
2018-12-22T12:09:43.494Z,993.05
2018-12-22T12:10:43.454Z,993.10
2018-12-22T12:11:43.444Z,993.11
2018-12-22T12:12:43.488Z,993.12
2018-12-22T12:13:43.421Z,993.17
2018-12-22T12:14:43.407Z,993.17
2018-12-22T12:15:43.401Z,993.21
2018-12-22T12:16:43.400Z,993.27
2018-12-22T12:17:43.410Z,993.27
2018-12-22T12:18:43.369Z,993.25
2018-12-22T12:19:43.455Z,993.24
2018-12-22T12:20:43.354Z,993.25
2018-12-22T12:21:43.331Z,993.26
2018-12-22T12:22:43.337Z,993.24
2018-12-22T12:23:43.323Z,993.27
2018-12-22T12:24:43.358Z,993.26
2018-12-22T12:25:43.292Z,993.30
2018-12-22T12:26:43.276Z,993.30
2018-12-22T12:27:43.295Z,993.34
2018-12-22T12:28:43.274Z,993.34